createdAt,value
2019-06-07T00:02:18.849Z,16.33
2019-06-07T00:04:50.567Z,16.44
2019-06-07T00:07:22.128Z,16.45
2019-06-07T00:09:54.742Z,16.31
2019-06-07T00:12:26.252Z,16.17
2019-06-07T00:14:57.692Z,16.06
2019-06-07T00:17:29.224Z,16.10
2019-06-07T00:20:00.743Z,16.18
2019-06-07T00:22:33.731Z,16.28
2019-06-07T00:25:06.426Z,16.26
2019-06-07T00:27:37.943Z,16.17
2019-06-07T00:30:34.991Z,16.07
2019-06-07T00:32:43.756Z,15.78
2019-06-07T00:35:20.226Z,15.61
2019-06-07T00:37:48.775Z,15.48
2019-06-07T00:40:29.972Z,15.54
2019-06-07T00:42:53.686Z,15.77
2019-06-07T00:45:25.233Z,15.62
2019-06-07T00:47:57.054Z,15.15
2019-06-07T00:50:29.523Z,15.04
2019-06-07T00:53:26.918Z,15.12
2019-06-07T00:55:34.839Z,15.06
2019-06-07T00:58:06.557Z,15.15
2019-06-07T01:00:38.448Z,15.18
2019-06-07T01:03:10.093Z,15.12
2019-06-07T01:05:42.146Z,14.93
2019-06-07T01:08:14.895Z,14.97
2019-06-07T01:10:53.655Z,14.79
2019-06-07T01:13:22.755Z,14.83
2019-06-07T01:15:53.285Z,14.94
2019-06-07T01:18:46.166Z,14.83
2019-06-07T01:20:57.975Z,14.69
2019-06-07T01:26:03.088Z,14.54
2019-06-07T01:28:34.816Z,14.61
2019-06-07T01:31:06.410Z,14.52
2019-06-07T01:33:50.260Z,14.60
2019-06-07T01:36:11.352Z,14.62
2019-06-07T01:38:42.937Z,14.63
2019-06-07T01:41:14.492Z,14.59
2019-06-07T01:43:46.001Z,14.44
2019-06-07T01:46:18.183Z,14.37
2019-06-07T01:48:50.096Z,14.42
2019-06-07T01:51:22.100Z,14.43
2019-06-07T01:54:40.896Z,14.35
2019-06-07T01:56:29.646Z,14.25
2019-06-07T01:59:00.275Z,14.22
2019-06-07T02:01:35.134Z,14.18
2019-06-07T02:04:05.576Z,14.29
2019-06-07T02:06:37.152Z,14.48
2019-06-07T02:09:09.322Z,14.43
2019-06-07T02:11:40.902Z,14.42
2019-06-07T02:14:12.451Z,14.47
2019-06-07T02:16:44.129Z,14.48
2019-06-07T02:19:15.758Z,14.45
2019-06-07T02:21:47.353Z,14.73
2019-06-07T02:24:21.378Z,14.84
2019-06-07T02:26:52.105Z,14.74
2019-06-07T02:29:25.394Z,14.65
2019-06-07T02:31:57.103Z,14.76
2019-06-07T02:34:35.976Z,14.58
2019-06-07T02:37:01.798Z,14.49
2019-06-07T02:39:38.089Z,14.41
2019-06-07T02:42:08.092Z,14.38
2019-06-07T02:44:40.436Z,14.24
2019-06-07T02:47:12.233Z,14.13
2019-06-07T02:49:44.521Z,14.12
2019-06-07T02:52:17.447Z,14.14
2019-06-07T02:54:49.000Z,14.15
2019-06-07T02:57:21.477Z,14.17
2019-06-07T03:00:07.092Z,14.23
2019-06-07T03:02:30.863Z,14.24
2019-06-07T03:05:00.169Z,14.22
2019-06-07T03:07:39.038Z,14.14
2019-06-07T03:10:07.313Z,14.18
2019-06-07T03:12:41.585Z,14.25
2019-06-07T03:15:32.154Z,14.18
2019-06-07T03:18:02.527Z,14.18
2019-06-07T03:20:36.607Z,14.25
2019-06-07T03:23:08.540Z,14.25
2019-06-07T03:25:42.192Z,14.09
2019-06-07T03:28:13.750Z,13.96
2019-06-07T03:31:00.677Z,13.79
2019-06-07T03:33:18.605Z,13.76
2019-06-07T03:35:51.997Z,13.74
2019-06-07T03:38:23.594Z,13.83
2019-06-07T03:40:55.100Z,13.82
2019-06-07T03:43:27.465Z,13.78
2019-06-07T03:45:59.980Z,13.88
2019-06-07T03:48:32.902Z,13.73
2019-06-07T03:51:20.468Z,13.75
2019-06-07T03:53:40.802Z,13.77
2019-06-07T03:56:12.175Z,13.72
2019-06-07T03:58:49.486Z,13.79
2019-06-07T04:01:17.951Z,13.81
2019-06-07T04:03:51.632Z,13.78
2019-06-07T04:06:22.828Z,13.77
2019-06-07T04:08:54.441Z,13.85
2019-06-07T04:11:25.987Z,13.66
2019-06-07T04:13:57.570Z,13.64
2019-06-07T04:16:32.524Z,13.68
2019-06-07T04:19:02.398Z,13.79
2019-06-07T04:21:35.130Z,13.81
2019-06-07T04:24:07.241Z,13.95
2019-06-07T04:26:43.998Z,14.06
2019-06-07T04:29:33.899Z,14.17
2019-06-07T04:31:48.841Z,14.05
2019-06-07T04:34:20.344Z,14.08
2019-06-07T04:36:59.165Z,14.05
2019-06-07T04:39:32.114Z,14.14
2019-06-07T04:42:03.751Z,14.08
2019-06-07T04:44:41.128Z,14.00
2019-06-07T04:47:13.432Z,14.13
2019-06-07T04:49:45.712Z,14.19
2019-06-07T04:52:17.535Z,14.36
2019-06-07T04:54:49.053Z,14.53
2019-06-07T04:57:20.580Z,14.60
2019-06-07T05:00:12.287Z,14.65
2019-06-07T05:02:25.347Z,14.62
2019-06-07T05:04:56.903Z,14.66
2019-06-07T05:07:30.969Z,14.70
2019-06-07T05:10:03.117Z,14.65
2019-06-07T05:12:36.150Z,14.64
2019-06-07T05:15:08.300Z,14.72
2019-06-07T05:17:43.278Z,14.54
2019-06-07T05:20:13.615Z,14.52
2019-06-07T05:22:45.520Z,14.52
2019-06-07T05:25:17.539Z,14.57
2019-06-07T05:27:49.271Z,14.50
2019-06-07T05:31:03.033Z,14.52
2019-06-07T05:33:10.879Z,14.55
2019-06-07T05:35:43.584Z,14.48
2019-06-07T05:38:15.417Z,14.65
2019-06-07T05:40:49.040Z,14.73
2019-06-07T05:43:29.726Z,14.88
2019-06-07T05:46:01.300Z,14.89
2019-06-07T05:48:34.086Z,14.69
2019-06-07T05:51:05.959Z,14.94
2019-06-07T05:53:40.070Z,14.97
2019-06-07T05:56:12.480Z,15.16
2019-06-07T05:58:45.001Z,15.21
2019-06-07T06:03:49.740Z,15.31
2019-06-07T06:06:21.322Z,15.28
2019-06-07T06:09:11.009Z,15.27
2019-06-07T06:11:42.995Z,15.58
2019-06-07T06:14:07.399Z,15.51
2019-06-07T06:16:32.952Z,15.70
2019-06-07T06:19:04.610Z,15.75
2019-06-07T06:21:36.223Z,15.77
2019-06-07T06:24:07.848Z,16.03
2019-06-07T06:26:46.193Z,15.97
2019-06-07T06:29:12.861Z,15.95
2019-06-07T06:32:39.169Z,15.91
2019-06-07T06:34:17.925Z,15.80
2019-06-07T06:36:50.415Z,15.80
2019-06-07T06:39:22.392Z,16.01
2019-06-07T06:42:00.980Z,15.95
2019-06-07T06:44:27.205Z,15.98
2019-06-07T06:46:59.050Z,15.80
2019-06-07T06:49:30.808Z,15.88
2019-06-07T06:52:02.308Z,15.96
2019-06-07T06:54:40.979Z,16.13
2019-06-07T06:57:18.930Z,16.21
2019-06-07T06:59:41.788Z,16.17
2019-06-07T07:02:13.681Z,16.20
2019-06-07T07:04:46.115Z,16.31
2019-06-07T07:07:19.104Z,16.13
2019-06-07T07:09:57.325Z,16.22
2019-06-07T07:12:24.775Z,16.09
2019-06-07T07:14:56.445Z,16.16
2019-06-07T07:17:47.684Z,16.14
2019-06-07T07:20:01.236Z,16.11
2019-06-07T07:22:32.822Z,16.02
2019-06-07T07:25:04.608Z,15.99
2019-06-07T07:27:36.133Z,16.09
2019-06-07T07:32:45.526Z,16.06
2019-06-07T07:35:15.595Z,16.24
2019-06-07T07:37:53.495Z,16.26
2019-06-07T07:40:56.258Z,16.22
2019-06-07T07:42:56.764Z,16.28
2019-06-07T07:45:28.466Z,16.39
2019-06-07T07:48:14.801Z,16.42
2019-06-07T07:50:33.439Z,16.34
2019-06-07T07:53:05.832Z,16.50
2019-06-07T07:55:37.832Z,16.53
2019-06-07T07:58:09.574Z,16.45
2019-06-07T08:00:52.951Z,16.66
2019-06-07T08:03:14.714Z,16.71
2019-06-07T08:05:47.096Z,16.65
2019-06-07T08:08:19.631Z,16.80
2019-06-07T08:10:52.602Z,16.90
2019-06-07T08:13:27.402Z,16.81
2019-06-07T08:16:00.356Z,16.95
2019-06-07T08:18:31.126Z,16.78
2019-06-07T08:21:21.560Z,17.11
2019-06-07T08:23:36.100Z,17.43
2019-06-07T08:26:07.797Z,17.33
2019-06-07T08:28:39.548Z,17.31
2019-06-07T08:31:11.093Z,17.33
2019-06-07T08:33:42.611Z,17.03
2019-06-07T08:36:20.282Z,16.79
2019-06-07T08:38:52.385Z,17.03
2019-06-07T08:41:21.420Z,17.00
2019-06-07T08:43:55.311Z,16.97
2019-06-07T08:46:26.886Z,17.01
2019-06-07T08:49:03.880Z,16.86
2019-06-07T08:51:31.554Z,16.93
2019-06-07T08:54:21.760Z,16.85
2019-06-07T08:56:36.323Z,16.78
2019-06-07T08:59:11.556Z,16.87
2019-06-07T09:01:41.590Z,16.83
2019-06-07T09:04:13.162Z,16.75
2019-06-07T09:09:17.804Z,16.86
2019-06-07T09:11:49.318Z,16.83
2019-06-07T09:14:20.876Z,17.09
2019-06-07T09:16:55.362Z,16.95
2019-06-07T09:19:26.334Z,17.06
2019-06-07T09:22:04.582Z,16.85
2019-06-07T09:24:32.199Z,17.21
2019-06-07T09:27:07.576Z,16.95
2019-06-07T09:29:37.959Z,17.00
2019-06-07T09:32:14.873Z,16.95
2019-06-07T09:34:42.606Z,17.03
2019-06-07T09:38:03.043Z,16.95
2019-06-07T09:39:48.470Z,16.97
2019-06-07T09:42:20.156Z,17.08
2019-06-07T09:44:51.662Z,17.14
2019-06-07T09:47:32.437Z,17.15
2019-06-07T09:50:02.342Z,17.24
2019-06-07T09:52:30.654Z,17.31
2019-06-07T09:55:09.366Z,17.09
2019-06-07T09:57:35.521Z,17.06
2019-06-07T10:00:38.717Z,17.36
2019-06-07T10:02:47.161Z,17.19
2019-06-07T10:05:18.580Z,17.17
2019-06-07T10:08:02.376Z,17.20
2019-06-07T10:12:56.911Z,17.47
2019-06-07T10:15:28.435Z,17.36
2019-06-07T10:18:00.733Z,17.52
2019-06-07T10:20:32.434Z,17.42
2019-06-07T10:23:05.751Z,17.36
2019-06-07T10:25:37.700Z,17.53
2019-06-07T10:28:10.247Z,17.60
2019-06-07T10:30:41.923Z,17.72
2019-06-07T10:33:13.405Z,17.80
2019-06-07T10:35:44.973Z,17.94
2019-06-07T10:38:16.497Z,18.07
2019-06-07T10:40:48.046Z,18.25
2019-06-07T10:43:19.645Z,18.30
2019-06-07T10:45:51.157Z,18.34
2019-06-07T10:48:24.992Z,18.56
2019-06-07T10:50:55.896Z,18.62
2019-06-07T10:53:27.389Z,18.75
2019-06-07T10:55:58.891Z,18.77
2019-06-07T10:58:30.441Z,18.98
2019-06-07T11:01:03.269Z,19.06
2019-06-07T11:03:34.790Z,19.11
2019-06-07T11:06:07.931Z,18.98
2019-06-07T11:08:39.526Z,19.01
2019-06-07T11:11:12.196Z,19.19
2019-06-07T11:13:44.847Z,19.28
2019-06-07T11:16:16.622Z,19.58
2019-06-07T11:18:48.257Z,19.60
2019-06-07T11:21:19.745Z,19.78
2019-06-07T11:23:51.839Z,19.88
2019-06-07T11:26:24.965Z,19.83
2019-06-07T11:28:57.104Z,19.92
2019-06-07T11:31:28.656Z,19.94
2019-06-07T11:34:00.132Z,20.07
2019-06-07T11:36:31.626Z,19.94
2019-06-07T11:39:03.197Z,19.95
2019-06-07T11:41:34.980Z,20.13
2019-06-07T11:44:07.061Z,20.22
2019-06-07T11:46:39.373Z,20.11
2019-06-07T11:49:12.699Z,20.21
2019-06-07T11:51:44.268Z,20.30
2019-06-07T11:54:16.238Z,20.22
2019-06-07T11:56:47.852Z,20.21
2019-06-07T11:59:19.341Z,20.30
2019-06-07T12:01:50.816Z,20.39
2019-06-07T12:04:34.533Z,20.33
2019-06-07T12:06:55.582Z,20.44
2019-06-07T12:09:28.129Z,20.53
2019-06-07T12:11:59.789Z,20.89
2019-06-07T12:14:31.252Z,20.77
2019-06-07T12:17:02.825Z,20.79
2019-06-07T12:19:34.314Z,20.72
2019-06-07T12:22:07.177Z,20.96
2019-06-07T12:24:38.807Z,21.04
2019-06-07T12:27:10.536Z,21.16
2019-06-07T12:29:41.980Z,21.17
2019-06-07T12:32:15.350Z,21.19
2019-06-07T12:34:46.890Z,21.03
2019-06-07T12:37:21.075Z,21.04
2019-06-07T12:39:51.745Z,21.18
2019-06-07T12:42:23.225Z,21.22
2019-06-07T12:44:54.693Z,21.30
2019-06-07T12:47:26.113Z,21.40
2019-06-07T12:49:57.624Z,21.42
2019-06-07T12:52:29.054Z,21.39
2019-06-07T12:55:00.524Z,21.33
2019-06-07T12:57:32.038Z,21.22
2019-06-07T13:00:03.600Z,21.15
2019-06-07T13:02:35.442Z,21.23
2019-06-07T13:05:08.696Z,21.21
2019-06-07T13:07:40.405Z,21.21
2019-06-07T13:10:12.537Z,21.16
2019-06-07T13:12:44.215Z,21.13
2019-06-07T13:15:19.954Z,21.11
2019-06-07T13:17:50.823Z,21.07
2019-06-07T13:20:22.803Z,21.16
2019-06-07T13:22:54.920Z,21.06
2019-06-07T13:25:43.478Z,21.02
2019-06-07T13:27:59.857Z,21.03
2019-06-07T13:30:31.758Z,21.08
2019-06-07T13:33:03.342Z,21.10
2019-06-07T13:35:34.838Z,21.07
2019-06-07T13:38:06.447Z,21.09
2019-06-07T13:40:38.063Z,21.21
2019-06-07T13:43:11.256Z,21.23
2019-06-07T13:45:42.787Z,21.27
2019-06-07T13:48:14.250Z,21.20
2019-06-07T13:50:47.100Z,21.19
2019-06-07T13:53:18.956Z,21.23
2019-06-07T13:55:51.222Z,21.17
2019-06-07T13:58:24.143Z,21.15
2019-06-07T14:00:56.447Z,21.03
2019-06-07T14:03:32.757Z,21.13
2019-06-07T14:06:01.158Z,21.12
2019-06-07T14:08:32.738Z,21.17
2019-06-07T14:11:04.414Z,21.23
2019-06-07T14:13:36.030Z,21.26
2019-06-07T14:16:07.539Z,21.26
2019-06-07T14:18:39.156Z,21.32
2019-06-07T14:21:10.812Z,21.05
2019-06-07T14:23:49.170Z,21.12
2019-06-07T14:26:15.618Z,21.13
2019-06-07T14:28:47.083Z,20.99
2019-06-07T14:31:18.619Z,20.95
2019-06-07T14:33:50.294Z,21.04
2019-06-07T14:36:22.694Z,20.95
2019-06-07T14:38:54.441Z,20.92
2019-06-07T14:41:27.193Z,20.83
2019-06-07T14:43:58.714Z,20.75
2019-06-07T14:46:30.307Z,20.62
2019-06-07T14:49:01.824Z,20.66
2019-06-07T14:51:33.854Z,20.64
2019-06-07T14:54:06.509Z,20.47
2019-06-07T14:56:38.002Z,20.06
2019-06-07T14:59:09.456Z,19.78
2019-06-07T15:01:40.951Z,19.53
2019-06-07T15:04:12.528Z,19.39
2019-06-07T15:06:44.005Z,19.35
2019-06-07T15:09:15.442Z,19.32
2019-06-07T15:11:47.044Z,19.31
2019-06-07T15:14:18.485Z,19.21
2019-06-07T15:16:49.944Z,19.10
2019-06-07T15:19:24.026Z,19.16
2019-06-07T15:21:54.576Z,19.09
2019-06-07T15:24:26.036Z,18.99
2019-06-07T15:26:58.627Z,18.96
2019-06-07T15:29:31.686Z,18.97
2019-06-07T15:32:03.430Z,18.82
2019-06-07T15:34:36.377Z,18.42
2019-06-07T15:37:08.007Z,18.43
2019-06-07T15:39:39.674Z,18.56
2019-06-07T15:42:11.296Z,18.69
2019-06-07T15:44:43.044Z,18.81
2019-06-07T15:47:14.486Z,18.53
2019-06-07T15:49:46.019Z,18.42
2019-06-07T15:52:17.668Z,18.46
2019-06-07T15:54:49.352Z,18.57
2019-06-07T15:57:20.878Z,18.55
2019-06-07T15:59:52.530Z,18.67
2019-06-07T16:02:25.257Z,18.30
2019-06-07T16:04:56.703Z,18.16
2019-06-07T16:07:28.217Z,17.84
2019-06-07T16:09:59.691Z,17.70
2019-06-07T16:12:34.346Z,17.70
2019-06-07T16:15:07.816Z,17.51
2019-06-07T16:17:41.782Z,17.39
2019-06-07T16:20:13.606Z,17.22
2019-06-07T16:22:45.336Z,17.18
2019-06-07T16:25:17.224Z,17.05
2019-06-07T16:27:48.746Z,17.13
2019-06-07T16:30:21.224Z,17.18
2019-06-07T16:32:53.688Z,16.96
2019-06-07T16:35:25.294Z,16.91
2019-06-07T16:37:56.925Z,16.94
2019-06-07T16:40:28.344Z,17.08
2019-06-07T16:43:16.373Z,17.12
2019-06-07T16:45:34.021Z,16.91
2019-06-07T16:48:05.885Z,17.01
2019-06-07T16:50:38.684Z,16.99
2019-06-07T16:53:10.400Z,17.04
2019-06-07T16:55:42.733Z,17.08
2019-06-07T16:58:14.372Z,17.03
2019-06-07T17:00:46.432Z,16.96
2019-06-07T17:03:18.056Z,17.14
2019-06-07T17:05:50.672Z,17.02
2019-06-07T17:08:22.390Z,16.98
2019-06-07T17:10:54.185Z,17.07
2019-06-07T17:13:33.325Z,17.05
2019-06-07T17:16:00.096Z,17.14
2019-06-07T17:18:31.628Z,16.99
2019-06-07T17:21:05.284Z,16.59
2019-06-07T17:23:36.859Z,17.08
2019-06-07T17:26:09.485Z,16.90
2019-06-07T17:28:41.751Z,16.95
2019-06-07T17:31:13.949Z,16.92
2019-06-07T17:33:46.060Z,16.82
2019-06-07T17:36:17.816Z,16.87
2019-06-07T17:38:50.496Z,16.71
2019-06-07T17:41:23.077Z,16.66
2019-06-07T17:43:59.732Z,16.68
2019-06-07T17:46:28.023Z,16.64
2019-06-07T17:48:59.547Z,16.43
2019-06-07T17:51:31.126Z,16.40
2019-06-07T17:54:02.608Z,16.43
2019-06-07T17:56:34.125Z,16.39
2019-06-07T17:59:05.851Z,16.51
2019-06-07T18:01:41.589Z,16.22
2019-06-07T18:04:10.563Z,16.43
2019-06-07T18:06:43.579Z,16.40
2019-06-07T18:09:15.367Z,16.46
2019-06-07T18:11:47.894Z,16.50
2019-06-07T18:14:19.622Z,16.36
2019-06-07T18:16:54.704Z,16.24
2019-06-07T18:19:26.550Z,16.32
2019-06-07T18:21:59.059Z,16.26
2019-06-07T18:24:30.730Z,16.30
2019-06-07T18:27:06.968Z,16.23
2019-06-07T18:29:37.070Z,16.22
2019-06-07T18:32:13.348Z,16.28
2019-06-07T18:34:43.601Z,16.15
2019-06-07T18:37:15.515Z,16.21
2019-06-07T18:39:47.089Z,16.11
2019-06-07T18:42:19.300Z,16.25
2019-06-07T18:44:51.064Z,16.16
2019-06-07T18:47:25.267Z,16.19
2019-06-07T18:49:58.711Z,16.15
2019-06-07T18:52:34.010Z,16.11
2019-06-07T18:55:07.500Z,16.23
2019-06-07T18:57:39.103Z,16.36
2019-06-07T19:00:12.568Z,16.14
2019-06-07T19:02:44.060Z,16.07
2019-06-07T19:05:16.334Z,16.09
2019-06-07T19:07:48.408Z,16.07
2019-06-07T19:10:21.548Z,16.08
2019-06-07T19:12:53.241Z,16.06
2019-06-07T19:15:26.739Z,16.22
2019-06-07T19:17:58.408Z,16.06
2019-06-07T19:20:30.049Z,15.99
2019-06-07T19:23:01.523Z,16.00
2019-06-07T19:25:33.049Z,16.07
2019-06-07T19:28:04.637Z,16.06
2019-06-07T19:30:36.183Z,16.14
2019-06-07T19:33:07.829Z,15.96
2019-06-07T19:35:39.408Z,15.98
2019-06-07T19:38:13.122Z,15.85
2019-06-07T19:40:45.343Z,15.68
2019-06-07T19:43:16.907Z,15.74
2019-06-07T19:45:48.380Z,15.81
2019-06-07T19:48:19.869Z,15.77
2019-06-07T19:50:52.775Z,15.75
2019-06-07T19:53:24.511Z,15.78
2019-06-07T19:55:56.927Z,15.72
2019-06-07T19:58:28.601Z,15.71
2019-06-07T20:01:00.099Z,15.66
2019-06-07T20:03:31.683Z,15.77
2019-06-07T20:06:04.497Z,15.76
2019-06-07T20:08:36.277Z,15.75
2019-06-07T20:11:07.833Z,15.83
2019-06-07T20:13:39.445Z,15.75
2019-06-07T20:16:11.037Z,15.82
2019-06-07T20:18:42.575Z,15.85
2019-06-07T20:21:14.229Z,15.84
2019-06-07T20:23:45.724Z,15.92
2019-06-07T20:26:17.241Z,15.94
2019-06-07T20:28:48.840Z,15.85
2019-06-07T20:31:20.368Z,15.81
2019-06-07T20:33:51.765Z,15.87
2019-06-07T20:36:23.345Z,15.82
2019-06-07T20:38:54.878Z,15.80
2019-06-07T20:41:26.413Z,15.82
2019-06-07T20:43:59.592Z,15.79
2019-06-07T20:46:32.919Z,15.81
2019-06-07T20:49:06.085Z,15.77
2019-06-07T20:51:38.034Z,15.78
2019-06-07T20:54:09.544Z,15.76
2019-06-07T20:56:41.087Z,15.75
2019-06-07T20:59:12.587Z,15.79
2019-06-07T21:01:44.158Z,15.75
2019-06-07T21:04:15.689Z,15.82
2019-06-07T21:06:47.286Z,15.86
2019-06-07T21:09:18.976Z,15.95
2019-06-07T21:11:50.470Z,15.95
2019-06-07T21:14:21.975Z,15.96
2019-06-07T21:16:53.508Z,16.02
2019-06-07T21:19:25.073Z,15.96
2019-06-07T21:21:56.760Z,15.98
2019-06-07T21:24:28.497Z,15.97
2019-06-07T21:27:01.682Z,16.05
2019-06-07T21:29:33.633Z,16.10
2019-06-07T21:32:05.469Z,16.08
2019-06-07T21:34:37.057Z,16.18
2019-06-07T21:37:09.949Z,16.07
2019-06-07T21:39:41.548Z,16.02
2019-06-07T21:42:13.241Z,16.04
2019-06-07T21:44:45.921Z,15.99
2019-06-07T21:47:17.421Z,16.08
2019-06-07T21:49:48.974Z,16.11
2019-06-07T21:52:20.367Z,16.08
2019-06-07T21:54:51.861Z,16.07
2019-06-07T21:57:23.387Z,15.70
2019-06-07T21:59:54.895Z,15.69
2019-06-07T22:02:26.310Z,15.80
2019-06-07T22:04:57.708Z,15.67
2019-06-07T22:07:29.432Z,15.88
2019-06-07T22:10:00.882Z,15.86
2019-06-07T22:12:32.446Z,15.81
2019-06-07T22:15:12.642Z,15.86
2019-06-07T22:17:38.422Z,15.85
2019-06-07T22:20:10.920Z,15.93
2019-06-07T22:22:42.618Z,15.89
2019-06-07T22:25:15.141Z,15.85
2019-06-07T22:27:46.764Z,15.88
2019-06-07T22:30:18.783Z,15.95
2019-06-07T22:32:50.706Z,15.86
2019-06-07T22:35:22.510Z,15.80
2019-06-07T22:37:56.009Z,15.66
2019-06-07T22:40:27.483Z,15.61
2019-06-07T22:42:59.019Z,15.64
2019-06-07T22:45:30.557Z,15.71
2019-06-07T22:48:02.061Z,15.63
2019-06-07T22:50:33.595Z,15.53
2019-06-07T22:53:05.081Z,15.60
2019-06-07T22:55:36.864Z,15.58
2019-06-07T22:58:09.917Z,15.63
2019-06-07T23:00:41.580Z,15.69
2019-06-07T23:03:13.111Z,15.53
2019-06-07T23:05:44.943Z,15.58
2019-06-07T23:08:16.959Z,15.63
2019-06-07T23:10:48.667Z,15.47
2019-06-07T23:13:39.192Z,15.64
2019-06-07T23:16:11.574Z,15.63
2019-06-07T23:18:43.467Z,15.44
2019-06-07T23:21:15.889Z,15.43
2019-06-07T23:23:47.869Z,15.58
2019-06-07T23:26:20.626Z,15.43
2019-06-07T23:28:52.203Z,15.43
2019-06-07T23:31:23.814Z,15.39
2019-06-07T23:33:55.542Z,15.27
2019-06-07T23:36:27.017Z,15.04
2019-06-07T23:38:58.825Z,14.95
2019-06-07T23:41:30.619Z,14.91
2019-06-07T23:44:02.080Z,14.87
2019-06-07T23:46:33.598Z,14.96
2019-06-07T23:49:05.110Z,14.98
2019-06-07T23:51:36.824Z,14.81
2019-06-07T23:54:08.294Z,14.63
2019-06-07T23:56:39.795Z,14.48
2019-06-07T23:59:11.987Z,14.51
